createdAt,value
2019-01-31T00:01:11.719Z,47.47
2019-01-31T00:03:49.998Z,48.87
2019-01-31T00:06:54.000Z,56.50
2019-01-31T00:09:38.174Z,51.53
2019-01-31T00:12:16.469Z,49.37
2019-01-31T00:14:49.062Z,54.60
2019-01-31T00:17:38.823Z,57.93
2019-01-31T00:20:17.366Z,54.57
2019-01-31T00:23:18.216Z,53.27
2019-01-31T00:26:05.675Z,61.07
2019-01-31T00:28:59.049Z,61.20
2019-01-31T00:31:46.756Z,57.80
2019-01-31T00:34:44.546Z,56.43
2019-01-31T00:37:41.095Z,63.93
2019-01-31T00:40:25.226Z,61.17
2019-01-31T00:42:57.801Z,61.30
2019-01-31T00:45:36.280Z,58.00
2019-01-31T00:48:17.823Z,57.83
2019-01-31T00:50:56.350Z,58.47
2019-01-31T00:53:37.889Z,59.07
2019-01-31T00:56:10.488Z,60.50
2019-01-31T00:59:04.101Z,62.77
2019-01-31T01:01:51.679Z,63.37
2019-01-31T01:04:32.938Z,66.50
2019-01-31T01:07:29.238Z,60.40
2019-01-31T01:10:19.171Z,61.00
2019-01-31T01:12:54.601Z,64.43
2019-01-31T01:15:38.897Z,63.27
2019-01-31T01:18:11.493Z,59.57
2019-01-31T01:21:02.231Z,61.17
2019-01-31T01:23:37.428Z,58.10
2019-01-31T01:26:10.095Z,55.30
2019-01-31T01:28:54.306Z,62.20
2019-01-31T01:31:41.643Z,61.80
2019-01-31T01:34:22.983Z,61.03
2019-01-31T01:36:58.454Z,58.47
2019-01-31T01:39:55.042Z,61.40
2019-01-31T01:42:39.693Z,60.10
2019-01-31T01:45:27.010Z,52.17
2019-01-31T01:48:14.582Z,59.47
2019-01-31T01:51:04.906Z,57.20
2019-01-31T01:53:40.562Z,52.50
2019-01-31T01:56:31.000Z,56.43
2019-01-31T01:59:21.292Z,55.07
2019-01-31T02:02:02.504Z,56.43
2019-01-31T02:04:40.878Z,52.77
2019-01-31T02:07:24.866Z,56.43
2019-01-31T02:10:17.001Z,54.17
2019-01-31T02:13:01.406Z,55.47
2019-01-31T02:15:54.229Z,52.33
2019-01-31T02:18:29.675Z,53.40
2019-01-31T02:21:08.173Z,52.47
2019-01-31T02:23:40.778Z,51.10
2019-01-31T02:26:19.090Z,54.10
2019-01-31T02:29:08.135Z,52.60
2019-01-31T02:31:46.528Z,49.57
2019-01-31T02:34:39.846Z,49.30
2019-01-31T02:37:24.220Z,47.97
2019-01-31T02:40:02.471Z,49.20
2019-01-31T02:42:40.961Z,47.87
2019-01-31T02:45:47.736Z,38.97
2019-01-31T02:48:39.159Z,37.93
2019-01-31T02:51:28.102Z,39.63
2019-01-31T02:54:06.242Z,39.13
2019-01-31T02:56:44.531Z,39.07
2019-01-31T02:59:41.075Z,34.60
2019-01-31T03:02:25.642Z,34.73
2019-01-31T03:05:19.212Z,38.00
2019-01-31T03:08:15.427Z,33.33
2019-01-31T03:10:50.825Z,33.33
2019-01-31T03:13:38.132Z,34.53
2019-01-31T03:16:37.809Z,35.97
2019-01-31T03:19:26.657Z,35.23
2019-01-31T03:22:02.123Z,36.40
2019-01-31T03:24:51.017Z,35.17
2019-01-31T03:27:45.716Z,38.73
2019-01-31T03:30:43.542Z,36.20
2019-01-31T03:33:27.839Z,36.90
2019-01-31T03:36:00.404Z,37.90
2019-01-31T03:38:35.694Z,36.33
2019-01-31T03:41:26.405Z,40.03
2019-01-31T03:44:15.152Z,38.57
2019-01-31T03:46:50.399Z,38.97
2019-01-31T03:49:37.980Z,34.70
2019-01-31T03:52:37.601Z,32.17
2019-01-31T03:55:25.124Z,35.30
2019-01-31T03:58:00.669Z,36.07
2019-01-31T04:01:01.864Z,32.47
2019-01-31T04:03:34.476Z,33.13
2019-01-31T04:06:07.241Z,29.50
2019-01-31T04:08:36.809Z,34.33
2019-01-31T04:11:06.454Z,29.90
2019-01-31T04:13:36.009Z,30.17
2019-01-31T04:16:05.636Z,31.37
2019-01-31T04:18:35.309Z,33.40
2019-01-31T04:21:05.169Z,30.67
2019-01-31T04:23:34.746Z,30.50
2019-01-31T04:26:05.947Z,33.77
2019-01-31T04:28:35.543Z,28.33
2019-01-31T04:31:05.263Z,30.50
2019-01-31T04:33:34.853Z,32.37
2019-01-31T04:36:04.479Z,30.33
2019-01-31T04:38:34.124Z,32.03
2019-01-31T04:41:03.837Z,26.13
2019-01-31T04:43:33.461Z,27.43
2019-01-31T04:46:03.027Z,27.17
2019-01-31T04:48:32.699Z,29.57
2019-01-31T04:51:02.359Z,30.37
2019-01-31T04:53:31.877Z,29.20
2019-01-31T04:56:01.477Z,29.90
2019-01-31T04:58:31.136Z,30.57
2019-01-31T05:01:00.852Z,29.57
2019-01-31T05:03:30.468Z,27.67
2019-01-31T05:06:00.140Z,29.27
2019-01-31T05:08:31.009Z,31.07
2019-01-31T05:11:00.743Z,30.00
2019-01-31T05:13:30.275Z,33.83
2019-01-31T05:16:03.168Z,32.37
2019-01-31T05:18:31.202Z,29.53
2019-01-31T05:21:00.833Z,29.10
2019-01-31T05:23:30.495Z,30.80
2019-01-31T05:26:00.222Z,32.83
2019-01-31T05:28:29.850Z,33.07
2019-01-31T05:30:59.421Z,28.60
2019-01-31T05:33:29.004Z,28.80
2019-01-31T05:35:58.494Z,32.13
2019-01-31T05:38:28.144Z,34.23
2019-01-31T05:40:57.691Z,34.23
2019-01-31T05:43:27.402Z,32.37
2019-01-31T05:45:57.002Z,34.70
2019-01-31T05:48:26.598Z,31.03
2019-01-31T05:50:56.185Z,32.37
2019-01-31T05:53:25.818Z,34.23
2019-01-31T05:55:55.532Z,32.77
2019-01-31T05:58:25.110Z,35.50
2019-01-31T06:00:54.748Z,38.83
2019-01-31T06:03:24.331Z,34.20
2019-01-31T06:05:54.125Z,31.63
2019-01-31T06:08:23.687Z,34.73
2019-01-31T06:10:53.281Z,32.53
2019-01-31T06:13:22.896Z,34.67
2019-01-31T06:15:52.547Z,37.37
2019-01-31T06:18:22.033Z,34.80
2019-01-31T06:20:51.674Z,34.03
2019-01-31T06:23:21.179Z,38.07
2019-01-31T06:25:50.850Z,39.60
2019-01-31T06:28:20.526Z,38.40
2019-01-31T06:30:50.175Z,40.33
2019-01-31T06:33:19.836Z,35.53
2019-01-31T06:35:49.408Z,38.47
2019-01-31T06:38:19.022Z,41.37
2019-01-31T06:40:48.590Z,35.03
2019-01-31T06:43:18.294Z,32.63
2019-01-31T06:45:47.857Z,36.77
2019-01-31T06:48:17.497Z,41.03
2019-01-31T06:50:47.048Z,37.27
2019-01-31T06:53:16.692Z,40.53
2019-01-31T06:55:46.243Z,37.90
2019-01-31T06:58:15.834Z,35.83
2019-01-31T07:00:45.552Z,36.90
2019-01-31T07:03:15.128Z,35.93
2019-01-31T07:05:44.692Z,43.03
2019-01-31T07:08:14.284Z,37.63
2019-01-31T07:10:43.919Z,35.50
2019-01-31T07:13:13.540Z,39.70
2019-01-31T07:15:43.173Z,31.93
2019-01-31T07:18:12.712Z,32.53
2019-01-31T07:20:42.271Z,35.47
2019-01-31T07:23:11.777Z,32.43
2019-01-31T07:25:41.432Z,33.20
2019-01-31T07:28:11.115Z,38.53
2019-01-31T07:30:40.655Z,36.77
2019-01-31T07:33:10.372Z,34.07
2019-01-31T07:35:40.184Z,38.17
2019-01-31T07:38:09.947Z,32.43
2019-01-31T07:40:39.423Z,32.23
2019-01-31T07:43:09.231Z,33.83
2019-01-31T07:45:38.901Z,35.23
2019-01-31T07:48:08.548Z,36.27
2019-01-31T07:50:38.228Z,36.27
2019-01-31T07:53:07.832Z,37.87
2019-01-31T07:55:37.511Z,42.37
2019-01-31T07:58:07.144Z,41.57
2019-01-31T08:00:36.747Z,39.83
2019-01-31T08:03:06.383Z,37.83
2019-01-31T08:05:36.078Z,29.70
2019-01-31T08:08:06.020Z,30.80
2019-01-31T08:10:41.203Z,35.70
2019-01-31T08:13:11.041Z,31.17
2019-01-31T08:15:40.665Z,33.07
2019-01-31T08:18:11.076Z,33.10
2019-01-31T08:20:40.948Z,31.07
2019-01-31T08:23:10.662Z,33.50
2019-01-31T08:25:40.284Z,29.67
2019-01-31T08:28:10.051Z,27.90
2019-01-31T08:30:43.945Z,25.90
2019-01-31T08:33:13.633Z,27.87
2019-01-31T08:35:43.265Z,29.03
2019-01-31T08:38:12.822Z,31.00
2019-01-31T08:40:42.392Z,27.40
2019-01-31T08:43:12.009Z,28.57
2019-01-31T08:45:41.746Z,26.27
2019-01-31T08:48:11.388Z,24.87
2019-01-31T08:50:41.043Z,26.63
2019-01-31T08:53:10.776Z,25.10
2019-01-31T08:55:40.435Z,26.80
2019-01-31T08:58:10.061Z,25.87
2019-01-31T09:00:39.616Z,23.63
2019-01-31T09:03:09.380Z,23.23
2019-01-31T09:05:39.108Z,23.67
2019-01-31T09:08:08.790Z,23.57
2019-01-31T09:10:42.360Z,20.90
2019-01-31T09:13:12.128Z,23.37
2019-01-31T09:15:41.776Z,20.10
2019-01-31T09:18:11.447Z,21.97
2019-01-31T09:20:47.368Z,19.97
2019-01-31T09:23:25.711Z,18.60
2019-01-31T09:26:23.791Z,19.50
2019-01-31T09:29:18.730Z,19.47
2019-01-31T09:32:15.156Z,17.07
2019-01-31T09:34:53.301Z,17.40
2019-01-31T09:37:50.801Z,16.60
2019-01-31T09:40:39.645Z,16.50
2019-01-31T09:43:36.286Z,17.37
2019-01-31T09:46:11.897Z,15.13
2019-01-31T09:48:50.260Z,17.60
2019-01-31T09:51:40.667Z,15.30
2019-01-31T09:54:24.364Z,15.10
2019-01-31T09:57:16.368Z,16.93
2019-01-31T09:59:48.968Z,15.07
2019-01-31T10:02:40.963Z,14.90
2019-01-31T10:05:41.852Z,15.90
2019-01-31T10:08:29.154Z,17.03
2019-01-31T10:11:01.753Z,13.60
2019-01-31T10:13:37.321Z,14.77
2019-01-31T10:16:24.817Z,12.00
2019-01-31T10:18:57.418Z,12.67
2019-01-31T10:21:32.422Z,14.80
2019-01-31T10:24:17.180Z,14.50
2019-01-31T10:27:01.559Z,15.37
2019-01-31T10:29:34.132Z,13.90
2019-01-31T10:32:09.715Z,17.07
2019-01-31T10:34:45.203Z,14.03
2019-01-31T10:37:29.436Z,11.83
2019-01-31T10:40:17.010Z,13.67
2019-01-31T10:43:04.501Z,12.97
2019-01-31T10:45:37.092Z,11.60
2019-01-31T10:48:12.352Z,14.53
2019-01-31T10:50:47.761Z,11.37
2019-01-31T10:53:27.213Z,11.43
2019-01-31T10:56:11.429Z,14.83
2019-01-31T10:58:44.002Z,10.20
2019-01-31T11:01:35.824Z,11.80
2019-01-31T11:04:17.434Z,13.07
2019-01-31T11:07:23.007Z,12.50
2019-01-31T11:09:58.517Z,17.43
2019-01-31T11:12:31.100Z,11.23
2019-01-31T11:15:09.709Z,11.53
2019-01-31T11:17:48.194Z,11.60
2019-01-31T11:20:32.876Z,11.90
2019-01-31T11:23:11.134Z,10.40
2019-01-31T11:25:46.269Z,10.07
2019-01-31T11:28:44.003Z,8.67
2019-01-31T11:31:22.443Z,8.83
2019-01-31T11:34:12.862Z,8.17
2019-01-31T11:37:07.587Z,9.20
2019-01-31T11:39:42.868Z,9.20
2019-01-31T11:42:24.671Z,7.67
2019-01-31T11:45:08.842Z,8.53
2019-01-31T11:48:09.879Z,7.43
2019-01-31T11:50:58.643Z,8.20
2019-01-31T11:53:36.939Z,7.07
2019-01-31T11:56:09.570Z,7.23
2019-01-31T11:58:59.516Z,8.67
2019-01-31T12:01:29.379Z,5.57
2019-01-31T12:04:00.925Z,8.13
2019-01-31T12:06:30.515Z,7.77
2019-01-31T12:09:00.194Z,9.20
2019-01-31T12:11:29.779Z,10.33
2019-01-31T12:13:59.344Z,7.77
2019-01-31T12:16:29.020Z,6.67
2019-01-31T12:18:58.677Z,6.97
2019-01-31T12:21:28.333Z,7.37
2019-01-31T12:23:57.940Z,5.30
2019-01-31T12:26:27.576Z,7.20
2019-01-31T12:28:57.245Z,4.27
2019-01-31T12:31:26.862Z,5.93
2019-01-31T12:33:56.488Z,5.13
2019-01-31T12:36:26.140Z,7.23
2019-01-31T12:38:55.901Z,4.73
2019-01-31T12:41:25.548Z,9.07
2019-01-31T12:43:55.225Z,6.17
2019-01-31T12:46:24.922Z,6.47
2019-01-31T12:48:54.588Z,7.23
2019-01-31T12:51:24.248Z,5.93
2019-01-31T12:53:53.892Z,8.80
2019-01-31T12:56:23.708Z,6.20
2019-01-31T12:58:53.278Z,6.43
2019-01-31T13:01:22.799Z,8.73
2019-01-31T13:03:52.484Z,7.67
2019-01-31T13:06:22.032Z,8.37
2019-01-31T13:08:51.667Z,7.43
2019-01-31T13:11:21.296Z,8.30
2019-01-31T13:13:51.781Z,5.30
2019-01-31T13:16:21.564Z,6.07
2019-01-31T13:18:51.218Z,6.23
2019-01-31T13:21:21.054Z,7.70
2019-01-31T13:23:50.835Z,6.07
2019-01-31T13:26:20.504Z,5.97
2019-01-31T13:28:50.109Z,6.37
2019-01-31T13:31:19.749Z,8.53
2019-01-31T13:33:49.428Z,6.47
2019-01-31T13:36:19.396Z,7.03
2019-01-31T13:38:49.029Z,11.10
2019-01-31T13:41:18.810Z,8.37
2019-01-31T13:43:57.327Z,9.03
2019-01-31T13:46:19.624Z,6.90
2019-01-31T13:48:49.201Z,10.37
2019-01-31T13:52:00.406Z,8.70
2019-01-31T13:54:30.056Z,7.50
2019-01-31T13:56:59.711Z,8.63
2019-01-31T13:59:29.363Z,12.27
2019-01-31T14:01:58.952Z,6.40
2019-01-31T14:04:28.604Z,7.23
2019-01-31T14:06:58.138Z,9.30
2019-01-31T14:09:27.832Z,6.30
2019-01-31T14:11:57.519Z,6.50
2019-01-31T14:14:27.208Z,5.67
2019-01-31T14:16:56.861Z,8.27
2019-01-31T14:19:26.549Z,7.97
2019-01-31T14:21:56.164Z,7.83
2019-01-31T14:24:25.734Z,7.07
2019-01-31T14:26:55.215Z,7.57
2019-01-31T14:29:24.878Z,8.60
2019-01-31T14:31:54.465Z,9.37
2019-01-31T14:34:24.249Z,7.17
2019-01-31T14:36:53.900Z,7.33
2019-01-31T14:39:23.413Z,8.43
2019-01-31T14:41:53.018Z,8.83
2019-01-31T14:44:22.576Z,10.80
2019-01-31T14:46:52.077Z,12.60
2019-01-31T14:49:21.712Z,11.33
2019-01-31T14:51:51.349Z,8.87
2019-01-31T14:54:20.992Z,10.07
2019-01-31T14:56:50.631Z,6.17
2019-01-31T14:59:20.148Z,9.63
2019-01-31T15:01:49.799Z,8.57
2019-01-31T15:04:19.480Z,10.93
2019-01-31T15:06:49.210Z,9.00
2019-01-31T15:09:18.793Z,8.03
2019-01-31T15:11:48.436Z,8.90
2019-01-31T15:14:17.950Z,8.60
2019-01-31T15:16:47.449Z,8.97
2019-01-31T15:19:17.137Z,8.77
2019-01-31T15:21:46.841Z,7.80
2019-01-31T15:24:16.436Z,7.43
2019-01-31T15:26:46.113Z,6.87
2019-01-31T15:29:15.727Z,10.77
2019-01-31T15:31:45.315Z,7.53
2019-01-31T15:34:15.050Z,9.43
2019-01-31T15:36:44.671Z,9.33
2019-01-31T15:39:14.248Z,6.97
2019-01-31T15:41:43.918Z,9.77
2019-01-31T15:44:13.571Z,8.03
2019-01-31T15:46:43.233Z,8.93
2019-01-31T15:49:12.825Z,7.87
2019-01-31T15:51:42.492Z,10.77
2019-01-31T15:54:12.123Z,8.20
2019-01-31T15:56:41.761Z,6.77
2019-01-31T15:59:11.516Z,5.67
2019-01-31T16:01:41.184Z,10.80
2019-01-31T16:04:10.790Z,8.33
2019-01-31T16:06:40.429Z,6.83
2019-01-31T16:09:10.114Z,8.80
2019-01-31T16:11:39.850Z,6.70
2019-01-31T16:14:09.587Z,7.47
2019-01-31T16:16:39.158Z,7.77
2019-01-31T16:19:08.759Z,10.43
2019-01-31T16:21:38.342Z,8.13
2019-01-31T16:24:08.010Z,9.67
2019-01-31T16:26:37.666Z,6.90
2019-01-31T16:29:07.286Z,7.93
2019-01-31T16:31:36.886Z,9.00
2019-01-31T16:34:06.521Z,6.03
2019-01-31T16:36:36.282Z,11.70
2019-01-31T16:39:08.255Z,6.63
2019-01-31T16:41:37.934Z,9.03
2019-01-31T16:44:07.886Z,7.27
2019-01-31T16:46:37.517Z,5.87
2019-01-31T16:49:07.128Z,7.33
2019-01-31T16:51:36.808Z,9.33
2019-01-31T16:54:06.446Z,8.20
2019-01-31T16:56:36.065Z,8.70
2019-01-31T16:59:05.833Z,8.70
2019-01-31T17:01:35.545Z,7.07
2019-01-31T17:04:05.597Z,7.07
2019-01-31T17:06:35.368Z,7.57
2019-01-31T17:09:07.779Z,8.63
2019-01-31T17:11:37.433Z,6.10
2019-01-31T17:14:07.138Z,8.07
2019-01-31T17:16:36.789Z,6.20
2019-01-31T17:19:06.462Z,5.80
2019-01-31T17:21:36.157Z,6.90
2019-01-31T17:24:07.021Z,8.00
2019-01-31T17:26:37.081Z,6.27
2019-01-31T17:29:06.795Z,7.10
2019-01-31T17:31:36.504Z,6.23
2019-01-31T17:34:06.495Z,6.73
2019-01-31T17:36:36.174Z,7.87
2019-01-31T17:39:08.090Z,8.60
2019-01-31T17:41:37.697Z,6.30
2019-01-31T17:44:07.320Z,8.90
2019-01-31T17:46:37.069Z,8.33
2019-01-31T17:49:06.728Z,7.17
2019-01-31T17:51:36.406Z,8.07
2019-01-31T17:54:06.302Z,9.13
2019-01-31T17:56:35.852Z,8.63
2019-01-31T17:59:05.509Z,9.03
2019-01-31T18:01:35.156Z,6.90
2019-01-31T18:04:04.788Z,8.30
2019-01-31T18:06:34.700Z,8.57
2019-01-31T18:09:07.279Z,14.07
2019-01-31T18:11:36.799Z,10.43
2019-01-31T18:14:06.579Z,9.80
2019-01-31T18:16:36.069Z,6.23
2019-01-31T18:19:05.773Z,10.03
2019-01-31T18:21:35.402Z,6.20
2019-01-31T18:24:05.188Z,7.93
2019-01-31T18:26:34.726Z,7.80
2019-01-31T18:29:04.308Z,9.83
2019-01-31T18:31:33.874Z,7.53
2019-01-31T18:34:03.541Z,7.80
2019-01-31T18:36:33.176Z,5.20
2019-01-31T18:39:04.664Z,7.37
2019-01-31T18:41:34.285Z,10.67
2019-01-31T18:44:04.598Z,6.50
2019-01-31T18:46:34.240Z,5.43
2019-01-31T18:49:03.795Z,9.63
2019-01-31T18:51:33.458Z,6.07
2019-01-31T18:54:03.044Z,8.53
2019-01-31T18:56:32.821Z,7.80
2019-01-31T18:59:02.430Z,10.63
2019-01-31T19:01:32.074Z,5.90
2019-01-31T19:04:01.872Z,4.63
2019-01-31T19:06:31.707Z,8.73
2019-01-31T19:09:01.518Z,6.23
2019-01-31T19:11:33.269Z,7.67
2019-01-31T19:14:03.594Z,9.63
2019-01-31T19:16:34.111Z,7.43
2019-01-31T19:19:04.212Z,6.57
2019-01-31T19:21:35.976Z,5.37
2019-01-31T19:24:06.529Z,6.87
2019-01-31T19:26:36.984Z,5.97
2019-01-31T19:29:08.296Z,8.40
2019-01-31T19:31:40.420Z,7.67
2019-01-31T19:34:09.789Z,6.27
2019-01-31T19:36:39.509Z,8.70
2019-01-31T19:39:11.290Z,6.93
2019-01-31T19:41:42.503Z,6.10
2019-01-31T19:44:12.196Z,5.80
2019-01-31T19:46:41.917Z,6.47
2019-01-31T19:49:11.759Z,6.37
2019-01-31T19:51:41.374Z,6.20
2019-01-31T19:54:11.004Z,8.23
2019-01-31T19:56:40.606Z,9.13
2019-01-31T19:59:10.331Z,8.20
2019-01-31T20:01:39.940Z,5.93
2019-01-31T20:04:09.626Z,5.93
2019-01-31T20:06:39.343Z,6.03
2019-01-31T20:09:11.165Z,6.07
2019-01-31T20:11:40.652Z,7.93
2019-01-31T20:14:10.204Z,5.83
2019-01-31T20:16:39.929Z,6.17
2019-01-31T20:19:09.547Z,8.57
2019-01-31T20:21:39.251Z,9.80
2019-01-31T20:24:08.903Z,9.40
2019-01-31T20:26:38.425Z,5.87
2019-01-31T20:29:07.982Z,7.00
2019-01-31T20:31:37.651Z,8.03
2019-01-31T20:34:07.292Z,8.13
2019-01-31T20:36:36.932Z,8.10
2019-01-31T20:39:08.171Z,6.33
2019-01-31T20:41:37.856Z,7.93
2019-01-31T20:44:07.487Z,8.60
2019-01-31T20:46:40.264Z,6.87
2019-01-31T20:49:08.460Z,6.20
2019-01-31T20:51:38.033Z,6.43
2019-01-31T20:54:07.646Z,6.97
2019-01-31T20:56:37.392Z,10.40
2019-01-31T20:59:07.048Z,5.07
2019-01-31T21:01:36.581Z,8.33
2019-01-31T21:04:06.230Z,6.63
2019-01-31T21:06:41.542Z,7.00
2019-01-31T21:09:08.165Z,7.57
2019-01-31T21:11:37.801Z,8.10
2019-01-31T21:14:07.496Z,9.33
2019-01-31T21:16:37.114Z,7.30
2019-01-31T21:19:06.752Z,8.07
2019-01-31T21:21:36.403Z,7.87
2019-01-31T21:24:06.141Z,7.40
2019-01-31T21:26:35.741Z,8.40
2019-01-31T21:29:05.338Z,7.17
2019-01-31T21:31:35.003Z,8.73
2019-01-31T21:34:04.705Z,7.63
2019-01-31T21:36:34.305Z,6.53
2019-01-31T21:39:05.433Z,9.60
2019-01-31T21:41:35.088Z,9.97
2019-01-31T21:44:04.936Z,7.70
2019-01-31T21:46:34.543Z,7.70
2019-01-31T21:49:04.149Z,7.17
2019-01-31T21:51:33.820Z,6.40
2019-01-31T21:54:03.446Z,8.30
2019-01-31T21:56:33.124Z,7.97
2019-01-31T21:59:02.952Z,9.30
2019-01-31T22:01:32.654Z,8.40
2019-01-31T22:04:02.177Z,8.03
2019-01-31T22:06:31.827Z,9.67
2019-01-31T22:09:01.321Z,11.93
2019-01-31T22:11:30.891Z,8.73
2019-01-31T22:14:00.561Z,7.73
2019-01-31T22:16:30.110Z,8.83
2019-01-31T22:18:59.756Z,9.57
2019-01-31T22:21:29.333Z,6.83
2019-01-31T22:23:58.986Z,7.03
2019-01-31T22:26:28.449Z,7.37
2019-01-31T22:28:58.024Z,8.83
2019-01-31T22:31:27.675Z,8.03
2019-01-31T22:33:57.253Z,6.73
2019-01-31T22:36:26.904Z,8.73
2019-01-31T22:38:56.564Z,7.37
2019-01-31T22:41:26.332Z,7.33
2019-01-31T22:43:56.218Z,9.17
2019-01-31T22:46:25.777Z,12.93
2019-01-31T22:48:55.366Z,9.17
2019-01-31T22:51:25.034Z,12.60
2019-01-31T22:53:54.597Z,11.63
2019-01-31T22:56:24.185Z,7.83
2019-01-31T22:58:53.807Z,8.03
2019-01-31T23:01:25.706Z,8.93
2019-01-31T23:03:55.375Z,8.10
2019-01-31T23:06:25.042Z,10.70
2019-01-31T23:08:54.723Z,10.77
2019-01-31T23:11:24.372Z,8.07
2019-01-31T23:13:53.947Z,9.07
2019-01-31T23:16:23.598Z,11.53
2019-01-31T23:18:53.245Z,7.73
2019-01-31T23:21:22.921Z,10.00
2019-01-31T23:23:52.488Z,11.53
2019-01-31T23:26:22.125Z,7.83
2019-01-31T23:28:51.712Z,10.67
2019-01-31T23:31:21.313Z,8.23
2019-01-31T23:33:50.864Z,7.43
2019-01-31T23:36:20.535Z,7.43
2019-01-31T23:38:50.185Z,8.40
2019-01-31T23:41:19.767Z,8.37
2019-01-31T23:43:49.344Z,8.87
2019-01-31T23:46:18.984Z,7.67
2019-01-31T23:48:50.637Z,10.10
2019-01-31T23:51:19.647Z,8.33
2019-01-31T23:53:49.364Z,7.63
2019-01-31T23:56:18.950Z,7.47
2019-01-31T23:58:48.531Z,10.97
